sensor_id;sensor_type;location;lat;lon;timestamp;P1;durP1;ratioP1;P2;durP2;ratioP2
77206;SDS011;66190;50.708;7.906;2023-08-21T00:01:03;14.97;;;8.73;;
77206;SDS011;66190;50.708;7.906;2023-08-21T00:03:28;15.67;;;8.70;;
77206;SDS011;66190;50.708;7.906;2023-08-21T00:05:55;13.30;;;8.43;;
77206;SDS011;66190;50.708;7.906;2023-08-21T00:08:20;15.50;;;8.70;;
77206;SDS011;66190;50.708;7.906;2023-08-21T00:10:45;14.57;;;8.70;;
77206;SDS011;66190;50.708;7.906;2023-08-21T00:13:11;16.90;;;9.07;;
77206;SDS011;66190;50.708;7.906;2023-08-21T00:15:37;13.50;;;8.50;;
77206;SDS011;66190;50.708;7.906;2023-08-21T00:18:03;13.25;;;8.18;;
77206;SDS011;66190;50.708;7.906;2023-08-21T00:20:29;15.33;;;8.77;;
77206;SDS011;66190;50.708;7.906;2023-08-21T00:22:55;13.90;;;8.63;;
77206;SDS011;66190;50.708;7.906;2023-08-21T00:25:21;13.60;;;8.93;;
77206;SDS011;66190;50.708;7.906;2023-08-21T00:27:47;13.73;;;8.80;;
77206;SDS011;66190;50.708;7.906;2023-08-21T00:30:12;14.20;;;9.00;;
77206;SDS011;66190;50.708;7.906;2023-08-21T00:32:40;12.80;;;8.40;;
77206;SDS011;66190;50.708;7.906;2023-08-21T00:35:05;14.50;;;8.77;;
77206;SDS011;66190;50.708;7.906;2023-08-21T00:37:31;14.17;;;8.07;;
77206;SDS011;66190;50.708;7.906;2023-08-21T00:39:56;13.23;;;8.20;;
77206;SDS011;66190;50.708;7.906;2023-08-21T00:42:22;13.73;;;8.70;;
77206;SDS011;66190;50.708;7.906;2023-08-21T00:44:47;15.13;;;9.10;;
77206;SDS011;66190;50.708;7.906;2023-08-21T00:47:12;14.50;;;9.20;;
77206;SDS011;66190;50.708;7.906;2023-08-21T00:49:38;14.97;;;9.90;;
77206;SDS011;66190;50.708;7.906;2023-08-21T00:52:04;14.33;;;8.80;;
77206;SDS011;66190;50.708;7.906;2023-08-21T00:54:34;14.95;;;8.65;;
77206;SDS011;66190;50.708;7.906;2023-08-21T00:57:00;14.15;;;8.85;;
77206;SDS011;66190;50.708;7.906;2023-08-21T00:59:26;13.23;;;8.55;;
77206;SDS011;66190;50.708;7.906;2023-08-21T01:01:51;16.97;;;9.20;;
77206;SDS011;66190;50.708;7.906;2023-08-21T01:04:17;14.17;;;8.73;;
77206;SDS011;66190;50.708;7.906;2023-08-21T01:06:42;15.33;;;8.77;;
77206;SDS011;66190;50.708;7.906;2023-08-21T01:09:25;15.88;;;9.15;;
77206;SDS011;66190;50.708;7.906;2023-08-21T01:12:18;12.35;;;8.35;;
77206;SDS011;66190;50.708;7.906;2023-08-21T01:14:59;13.17;;;8.47;;
77206;SDS011;66190;50.708;7.906;2023-08-21T01:17:28;12.75;;;8.13;;
77206;SDS011;66190;50.708;7.906;2023-08-21T01:19:55;14.55;;;8.57;;
77206;SDS011;66190;50.708;7.906;2023-08-21T01:22:25;16.73;;;8.77;;
77206;SDS011;66190;50.708;7.906;2023-08-21T01:24:59;14.63;;;9.25;;
77206;SDS011;66190;50.708;7.906;2023-08-21T01:27:25;22.17;;;10.17;;
77206;SDS011;66190;50.708;7.906;2023-08-21T01:29:50;15.67;;;8.97;;
77206;SDS011;66190;50.708;7.906;2023-08-21T01:34:41;14.03;;;8.33;;
77206;SDS011;66190;50.708;7.906;2023-08-21T01:37:07;16.67;;;8.57;;
77206;SDS011;66190;50.708;7.906;2023-08-21T01:39:33;14.48;;;8.63;;
77206;SDS011;66190;50.708;7.906;2023-08-21T01:41:59;13.53;;;8.30;;
77206;SDS011;66190;50.708;7.906;2023-08-21T01:44:24;14.43;;;8.43;;
77206;SDS011;66190;50.708;7.906;2023-08-21T01:46:51;14.43;;;8.70;;
77206;SDS011;66190;50.708;7.906;2023-08-21T01:49:17;14.52;;;9.13;;
77206;SDS011;66190;50.708;7.906;2023-08-21T01:51:44;13.77;;;8.30;;
77206;SDS011;66190;50.708;7.906;2023-08-21T01:54:09;15.53;;;9.27;;
77206;SDS011;66190;50.708;7.906;2023-08-21T01:56:34;13.00;;;8.80;;
77206;SDS011;66190;50.708;7.906;2023-08-21T01:59:01;14.63;;;9.40;;
77206;SDS011;66190;50.708;7.906;2023-08-21T02:01:27;14.10;;;8.13;;
77206;SDS011;66190;50.708;7.906;2023-08-21T02:03:52;16.87;;;9.80;;
77206;SDS011;66190;50.708;7.906;2023-08-21T02:06:17;12.97;;;8.50;;
77206;SDS011;66190;50.708;7.906;2023-08-21T02:08:43;15.45;;;8.65;;
77206;SDS011;66190;50.708;7.906;2023-08-21T02:11:08;14.13;;;8.53;;
77206;SDS011;66190;50.708;7.906;2023-08-21T02:13:33;16.73;;;9.10;;
77206;SDS011;66190;50.708;7.906;2023-08-21T02:15:59;14.47;;;9.10;;
77206;SDS011;66190;50.708;7.906;2023-08-21T02:18:24;15.10;;;9.10;;
77206;SDS011;66190;50.708;7.906;2023-08-21T02:20:50;13.10;;;8.37;;
77206;SDS011;66190;50.708;7.906;2023-08-21T02:23:15;13.97;;;8.93;;
77206;SDS011;66190;50.708;7.906;2023-08-21T02:25:41;15.05;;;8.52;;
77206;SDS011;66190;50.708;7.906;2023-08-21T02:28:07;14.20;;;8.30;;
77206;SDS011;66190;50.708;7.906;2023-08-21T02:30:33;14.23;;;8.48;;
77206;SDS011;66190;50.708;7.906;2023-08-21T02:32:58;15.33;;;9.00;;
77206;SDS011;66190;50.708;7.906;2023-08-21T02:35:24;13.40;;;8.13;;
77206;SDS011;66190;50.708;7.906;2023-08-21T02:37:49;14.02;;;8.15;;
77206;SDS011;66190;50.708;7.906;2023-08-21T02:40:14;12.90;;;7.78;;
77206;SDS011;66190;50.708;7.906;2023-08-21T02:42:40;13.47;;;7.70;;
77206;SDS011;66190;50.708;7.906;2023-08-21T02:45:06;13.93;;;8.07;;
77206;SDS011;66190;50.708;7.906;2023-08-21T02:47:37;14.77;;;8.40;;
77206;SDS011;66190;50.708;7.906;2023-08-21T02:50:04;14.18;;;8.95;;
77206;SDS011;66190;50.708;7.906;2023-08-21T02:52:31;13.88;;;8.43;;
77206;SDS011;66190;50.708;7.906;2023-08-21T02:54:57;13.03;;;8.07;;
77206;SDS011;66190;50.708;7.906;2023-08-21T02:57:23;13.85;;;8.30;;
77206;SDS011;66190;50.708;7.906;2023-08-21T02:59:49;14.18;;;8.90;;
77206;SDS011;66190;50.708;7.906;2023-08-21T03:02:15;14.10;;;9.30;;
77206;SDS011;66190;50.708;7.906;2023-08-21T03:04:41;14.60;;;9.60;;
77206;SDS011;66190;50.708;7.906;2023-08-21T03:07:06;15.50;;;9.52;;
77206;SDS011;66190;50.708;7.906;2023-08-21T03:09:31;14.80;;;9.60;;
77206;SDS011;66190;50.708;7.906;2023-08-21T03:11:57;14.80;;;9.30;;
77206;SDS011;66190;50.708;7.906;2023-08-21T03:14:22;16.60;;;9.43;;
77206;SDS011;66190;50.708;7.906;2023-08-21T03:16:47;14.07;;;8.77;;
77206;SDS011;66190;50.708;7.906;2023-08-21T03:19:13;14.53;;;9.10;;
77206;SDS011;66190;50.708;7.906;2023-08-21T03:21:38;14.17;;;8.37;;
77206;SDS011;66190;50.708;7.906;2023-08-21T03:24:05;13.82;;;8.70;;
77206;SDS011;66190;50.708;7.906;2023-08-21T03:26:31;17.53;;;8.33;;
77206;SDS011;66190;50.708;7.906;2023-08-21T03:28:56;15.07;;;8.40;;
77206;SDS011;66190;50.708;7.906;2023-08-21T03:31:22;14.38;;;8.75;;
77206;SDS011;66190;50.708;7.906;2023-08-21T03:33:47;14.33;;;7.27;;
77206;SDS011;66190;50.708;7.906;2023-08-21T03:36:13;14.47;;;7.90;;
77206;SDS011;66190;50.708;7.906;2023-08-21T03:38:38;14.77;;;8.27;;
77206;SDS011;66190;50.708;7.906;2023-08-21T03:41:04;14.03;;;7.20;;
77206;SDS011;66190;50.708;7.906;2023-08-21T03:43:30;12.53;;;7.83;;
77206;SDS011;66190;50.708;7.906;2023-08-21T03:45:56;13.25;;;7.60;;
77206;SDS011;66190;50.708;7.906;2023-08-21T03:48:21;15.03;;;7.73;;
77206;SDS011;66190;50.708;7.906;2023-08-21T03:50:48;11.52;;;7.45;;
77206;SDS011;66190;50.708;7.906;2023-08-21T03:53:14;12.15;;;6.95;;
77206;SDS011;66190;50.708;7.906;2023-08-21T03:55:39;12.97;;;7.00;;
77206;SDS011;66190;50.708;7.906;2023-08-21T03:58:05;13.10;;;7.30;;
77206;SDS011;66190;50.708;7.906;2023-08-21T04:00:30;12.83;;;7.50;;
77206;SDS011;66190;50.708;7.906;2023-08-21T04:02:56;13.10;;;7.50;;
77206;SDS011;66190;50.708;7.906;2023-08-21T04:05:22;12.83;;;8.00;;
77206;SDS011;66190;50.708;7.906;2023-08-21T04:07:47;14.67;;;8.80;;
77206;SDS011;66190;50.708;7.906;2023-08-21T04:10:13;13.20;;;8.25;;
77206;SDS011;66190;50.708;7.906;2023-08-21T04:12:38;14.13;;;8.63;;
77206;SDS011;66190;50.708;7.906;2023-08-21T04:15:04;13.20;;;7.60;;
77206;SDS011;66190;50.708;7.906;2023-08-21T04:17:31;13.27;;;7.72;;
77206;SDS011;66190;50.708;7.906;2023-08-21T04:19:56;14.87;;;8.80;;
77206;SDS011;66190;50.708;7.906;2023-08-21T04:22:22;13.32;;;8.30;;
77206;SDS011;66190;50.708;7.906;2023-08-21T04:24:47;12.97;;;7.60;;
77206;SDS011;66190;50.708;7.906;2023-08-21T04:27:13;15.80;;;7.10;;
77206;SDS011;66190;50.708;7.906;2023-08-21T04:29:39;13.43;;;7.97;;
77206;SDS011;66190;50.708;7.906;2023-08-21T04:32:04;13.53;;;7.43;;
77206;SDS011;66190;50.708;7.906;2023-08-21T04:34:34;12.45;;;7.70;;
77206;SDS011;66190;50.708;7.906;2023-08-21T04:36:59;11.48;;;6.78;;
77206;SDS011;66190;50.708;7.906;2023-08-21T04:39:25;13.50;;;7.93;;
77206;SDS011;66190;50.708;7.906;2023-08-21T04:41:50;11.53;;;7.20;;
77206;SDS011;66190;50.708;7.906;2023-08-21T04:44:16;12.85;;;7.45;;
77206;SDS011;66190;50.708;7.906;2023-08-21T04:46:41;12.00;;;6.67;;
77206;SDS011;66190;50.708;7.906;2023-08-21T04:49:07;12.53;;;6.37;;
77206;SDS011;66190;50.708;7.906;2023-08-21T04:51:32;13.00;;;6.80;;
77206;SDS011;66190;50.708;7.906;2023-08-21T04:53:57;11.93;;;6.83;;
77206;SDS011;66190;50.708;7.906;2023-08-21T04:56:24;13.15;;;6.63;;
77206;SDS011;66190;50.708;7.906;2023-08-21T04:58:50;11.55;;;6.80;;
77206;SDS011;66190;50.708;7.906;2023-08-21T05:01:15;15.90;;;7.17;;
77206;SDS011;66190;50.708;7.906;2023-08-21T05:03:41;12.40;;;7.07;;
77206;SDS011;66190;50.708;7.906;2023-08-21T05:06:06;13.07;;;7.50;;
77206;SDS011;66190;50.708;7.906;2023-08-21T05:08:32;12.17;;;7.60;;
77206;SDS011;66190;50.708;7.906;2023-08-21T05:10:57;12.13;;;6.55;;
77206;SDS011;66190;50.708;7.906;2023-08-21T05:13:23;10.90;;;7.40;;
77206;SDS011;66190;50.708;7.906;2023-08-21T05:15:57;12.23;;;6.90;;
77206;SDS011;66190;50.708;7.906;2023-08-21T05:18:23;10.80;;;6.07;;
77206;SDS011;66190;50.708;7.906;2023-08-21T05:20:50;11.07;;;6.15;;
77206;SDS011;66190;50.708;7.906;2023-08-21T05:23:16;12.80;;;6.63;;
77206;SDS011;66190;50.708;7.906;2023-08-21T05:25:45;11.17;;;5.97;;
77206;SDS011;66190;50.708;7.906;2023-08-21T05:28:11;9.98;;;5.70;;
77206;SDS011;66190;50.708;7.906;2023-08-21T05:30:37;14.47;;;6.37;;
77206;SDS011;66190;50.708;7.906;2023-08-21T05:33:03;9.93;;;5.50;;
77206;SDS011;66190;50.708;7.906;2023-08-21T05:35:32;11.13;;;6.10;;
77206;SDS011;66190;50.708;7.906;2023-08-21T05:38:04;12.52;;;5.70;;
77206;SDS011;66190;50.708;7.906;2023-08-21T05:40:30;9.77;;;5.60;;
77206;SDS011;66190;50.708;7.906;2023-08-21T05:42:56;9.65;;;5.57;;
77206;SDS011;66190;50.708;7.906;2023-08-21T05:45:21;10.87;;;5.67;;
77206;SDS011;66190;50.708;7.906;2023-08-21T05:47:47;9.60;;;5.43;;
77206;SDS011;66190;50.708;7.906;2023-08-21T05:50:12;10.80;;;5.67;;
77206;SDS011;66190;50.708;7.906;2023-08-21T05:52:37;9.37;;;5.67;;
77206;SDS011;66190;50.708;7.906;2023-08-21T05:55:04;14.33;;;5.40;;
77206;SDS011;66190;50.708;7.906;2023-08-21T05:57:30;8.98;;;5.63;;
77206;SDS011;66190;50.708;7.906;2023-08-21T05:59:55;10.27;;;5.53;;
77206;SDS011;66190;50.708;7.906;2023-08-21T06:02:20;10.35;;;5.80;;
77206;SDS011;66190;50.708;7.906;2023-08-21T06:04:46;10.00;;;6.10;;
77206;SDS011;66190;50.708;7.906;2023-08-21T06:07:11;14.53;;;5.50;;
77206;SDS011;66190;50.708;7.906;2023-08-21T06:09:37;10.53;;;6.33;;
77206;SDS011;66190;50.708;7.906;2023-08-21T06:12:02;13.20;;;5.10;;
77206;SDS011;66190;50.708;7.906;2023-08-21T06:14:28;11.15;;;5.68;;
77206;SDS011;66190;50.708;7.906;2023-08-21T06:16:59;9.77;;;5.38;;
77206;SDS011;66190;50.708;7.906;2023-08-21T06:19:25;10.20;;;5.88;;
77206;SDS011;66190;50.708;7.906;2023-08-21T06:21:50;11.07;;;5.87;;
77206;SDS011;66190;50.708;7.906;2023-08-21T06:24:16;10.00;;;5.40;;
77206;SDS011;66190;50.708;7.906;2023-08-21T06:26:41;9.40;;;6.17;;
77206;SDS011;66190;50.708;7.906;2023-08-21T06:29:07;10.85;;;5.50;;
77206;SDS011;66190;50.708;7.906;2023-08-21T06:31:32;11.13;;;5.50;;
77206;SDS011;66190;50.708;7.906;2023-08-21T06:33:58;11.27;;;5.23;;
77206;SDS011;66190;50.708;7.906;2023-08-21T06:36:23;9.53;;;5.63;;
77206;SDS011;66190;50.708;7.906;2023-08-21T06:38:48;9.80;;;5.30;;
77206;SDS011;66190;50.708;7.906;2023-08-21T06:41:14;10.50;;;6.07;;
77206;SDS011;66190;50.708;7.906;2023-08-21T06:43:39;9.82;;;6.05;;
77206;SDS011;66190;50.708;7.906;2023-08-21T06:46:05;10.13;;;5.33;;
77206;SDS011;66190;50.708;7.906;2023-08-21T06:48:30;9.23;;;5.17;;
77206;SDS011;66190;50.708;7.906;2023-08-21T06:50:56;11.00;;;5.35;;
77206;SDS011;66190;50.708;7.906;2023-08-21T06:53:21;10.10;;;5.03;;
77206;SDS011;66190;50.708;7.906;2023-08-21T06:55:47;9.70;;;5.17;;
77206;SDS011;66190;50.708;7.906;2023-08-21T06:58:12;10.27;;;5.87;;
77206;SDS011;66190;50.708;7.906;2023-08-21T07:00:38;10.07;;;5.63;;
77206;SDS011;66190;50.708;7.906;2023-08-21T07:03:03;10.77;;;5.33;;
77206;SDS011;66190;50.708;7.906;2023-08-21T07:05:32;9.27;;;5.38;;
77206;SDS011;66190;50.708;7.906;2023-08-21T07:07:57;8.90;;;5.27;;
77206;SDS011;66190;50.708;7.906;2023-08-21T07:10:23;8.88;;;4.93;;
77206;SDS011;66190;50.708;7.906;2023-08-21T07:12:49;9.37;;;5.20;;
77206;SDS011;66190;50.708;7.906;2023-08-21T07:15:14;9.90;;;5.07;;
77206;SDS011;66190;50.708;7.906;2023-08-21T07:17:40;9.18;;;5.05;;
77206;SDS011;66190;50.708;7.906;2023-08-21T07:20:06;9.50;;;5.57;;
77206;SDS011;66190;50.708;7.906;2023-08-21T07:22:32;9.27;;;5.25;;
77206;SDS011;66190;50.708;7.906;2023-08-21T07:24:57;8.63;;;5.00;;
77206;SDS011;66190;50.708;7.906;2023-08-21T07:27:25;8.73;;;5.22;;
77206;SDS011;66190;50.708;7.906;2023-08-21T07:29:51;9.47;;;4.97;;
77206;SDS011;66190;50.708;7.906;2023-08-21T07:32:16;9.95;;;4.90;;
77206;SDS011;66190;50.708;7.906;2023-08-21T07:34:41;9.23;;;5.43;;
77206;SDS011;66190;50.708;7.906;2023-08-21T07:37:07;10.00;;;5.10;;
77206;SDS011;66190;50.708;7.906;2023-08-21T07:39:33;8.85;;;5.07;;
77206;SDS011;66190;50.708;7.906;2023-08-21T07:41:59;8.87;;;4.60;;
77206;SDS011;66190;50.708;7.906;2023-08-21T07:44:24;8.57;;;4.97;;
77206;SDS011;66190;50.708;7.906;2023-08-21T07:46:49;9.67;;;4.87;;
77206;SDS011;66190;50.708;7.906;2023-08-21T07:49:15;8.20;;;4.90;;
77206;SDS011;66190;50.708;7.906;2023-08-21T07:51:40;10.07;;;5.27;;
77206;SDS011;66190;50.708;7.906;2023-08-21T07:54:06;9.07;;;5.30;;
77206;SDS011;66190;50.708;7.906;2023-08-21T07:56:31;9.40;;;4.83;;
77206;SDS011;66190;50.708;7.906;2023-08-21T07:58:56;9.97;;;5.10;;
77206;SDS011;66190;50.708;7.906;2023-08-21T08:01:22;9.37;;;4.57;;
77206;SDS011;66190;50.708;7.906;2023-08-21T08:03:47;9.67;;;5.03;;
77206;SDS011;66190;50.708;7.906;2023-08-21T08:06:14;9.05;;;5.28;;
77206;SDS011;66190;50.708;7.906;2023-08-21T08:08:40;8.83;;;5.10;;
77206;SDS011;66190;50.708;7.906;2023-08-21T08:11:05;8.95;;;5.38;;
77206;SDS011;66190;50.708;7.906;2023-08-21T08:13:31;11.50;;;4.97;;
77206;SDS011;66190;50.708;7.906;2023-08-21T08:15:57;11.48;;;4.97;;
77206;SDS011;66190;50.708;7.906;2023-08-21T08:18:22;12.57;;;5.40;;
77206;SDS011;66190;50.708;7.906;2023-08-21T08:20:48;9.13;;;5.70;;
77206;SDS011;66190;50.708;7.906;2023-08-21T08:23:13;10.93;;;5.07;;
77206;SDS011;66190;50.708;7.906;2023-08-21T08:25:39;10.13;;;5.53;;
77206;SDS011;66190;50.708;7.906;2023-08-21T08:28:04;10.87;;;5.80;;
77206;SDS011;66190;50.708;7.906;2023-08-21T08:30:30;9.50;;;6.05;;
77206;SDS011;66190;50.708;7.906;2023-08-21T08:32:56;10.20;;;5.73;;
77206;SDS011;66190;50.708;7.906;2023-08-21T08:35:22;12.75;;;5.80;;
77206;SDS011;66190;50.708;7.906;2023-08-21T08:37:48;11.50;;;5.60;;
77206;SDS011;66190;50.708;7.906;2023-08-21T08:40:13;9.80;;;5.53;;
77206;SDS011;66190;50.708;7.906;2023-08-21T08:42:38;10.03;;;5.47;;
77206;SDS011;66190;50.708;7.906;2023-08-21T08:45:04;9.60;;;6.13;;
77206;SDS011;66190;50.708;7.906;2023-08-21T08:47:31;11.73;;;6.13;;
77206;SDS011;66190;50.708;7.906;2023-08-21T08:49:58;9.85;;;5.20;;
77206;SDS011;66190;50.708;7.906;2023-08-21T08:52:25;8.27;;;5.03;;
77206;SDS011;66190;50.708;7.906;2023-08-21T08:54:52;10.13;;;5.70;;
77206;SDS011;66190;50.708;7.906;2023-08-21T08:57:20;11.68;;;5.80;;
77206;SDS011;66190;50.708;7.906;2023-08-21T08:59:45;9.83;;;5.97;;
77206;SDS011;66190;50.708;7.906;2023-08-21T09:02:10;9.90;;;6.17;;
77206;SDS011;66190;50.708;7.906;2023-08-21T09:04:36;9.98;;;6.45;;
77206;SDS011;66190;50.708;7.906;2023-08-21T09:07:05;9.23;;;5.67;;
77206;SDS011;66190;50.708;7.906;2023-08-21T09:09:37;9.50;;;4.85;;
77206;SDS011;66190;50.708;7.906;2023-08-21T09:12:10;8.90;;;5.15;;
77206;SDS011;66190;50.708;7.906;2023-08-21T09:14:37;9.38;;;5.65;;
77206;SDS011;66190;50.708;7.906;2023-08-21T09:17:04;9.82;;;5.30;;
77206;SDS011;66190;50.708;7.906;2023-08-21T09:19:30;10.53;;;5.73;;
77206;SDS011;66190;50.708;7.906;2023-08-21T09:21:55;13.90;;;5.80;;
77206;SDS011;66190;50.708;7.906;2023-08-21T09:24:20;9.40;;;5.10;;
77206;SDS011;66190;50.708;7.906;2023-08-21T09:26:46;9.60;;;5.50;;
77206;SDS011;66190;50.708;7.906;2023-08-21T09:29:12;9.38;;;5.72;;
77206;SDS011;66190;50.708;7.906;2023-08-21T09:31:37;8.57;;;5.13;;
77206;SDS011;66190;50.708;7.906;2023-08-21T09:34:04;10.43;;;5.67;;
77206;SDS011;66190;50.708;7.906;2023-08-21T09:36:33;10.80;;;6.25;;
77206;SDS011;66190;50.708;7.906;2023-08-21T09:38:59;11.38;;;5.63;;
77206;SDS011;66190;50.708;7.906;2023-08-21T09:41:25;9.38;;;5.22;;
77206;SDS011;66190;50.708;7.906;2023-08-21T09:43:51;9.27;;;5.18;;
77206;SDS011;66190;50.708;7.906;2023-08-21T09:46:17;8.97;;;4.83;;
77206;SDS011;66190;50.708;7.906;2023-08-21T09:48:48;9.75;;;5.82;;
77206;SDS011;66190;50.708;7.906;2023-08-21T09:51:16;9.77;;;6.20;;
77206;SDS011;66190;50.708;7.906;2023-08-21T09:53:42;9.90;;;5.83;;
77206;SDS011;66190;50.708;7.906;2023-08-21T09:56:07;9.45;;;5.63;;
77206;SDS011;66190;50.708;7.906;2023-08-21T09:58:34;9.10;;;5.63;;
77206;SDS011;66190;50.708;7.906;2023-08-21T10:01:01;8.68;;;4.93;;
77206;SDS011;66190;50.708;7.906;2023-08-21T10:03:39;8.05;;;4.88;;
77206;SDS011;66190;50.708;7.906;2023-08-21T10:06:12;8.13;;;4.65;;
77206;SDS011;66190;50.708;7.906;2023-08-21T10:08:43;11.23;;;5.43;;
77206;SDS011;66190;50.708;7.906;2023-08-21T10:11:13;9.83;;;4.87;;
77206;SDS011;66190;50.708;7.906;2023-08-21T10:13:39;8.13;;;5.00;;
77206;SDS011;66190;50.708;7.906;2023-08-21T10:16:05;9.50;;;5.15;;
77206;SDS011;66190;50.708;7.906;2023-08-21T10:18:33;11.30;;;5.47;;
77206;SDS011;66190;50.708;7.906;2023-08-21T10:21:21;8.53;;;5.57;;
77206;SDS011;66190;50.708;7.906;2023-08-21T10:23:46;9.85;;;5.55;;
77206;SDS011;66190;50.708;7.906;2023-08-21T10:26:20;9.13;;;5.82;;
77206;SDS011;66190;50.708;7.906;2023-08-21T10:34:07;9.80;;;5.53;;
77206;SDS011;66190;50.708;7.906;2023-08-21T10:42:03;8.48;;;4.80;;
77206;SDS011;66190;50.708;7.906;2023-08-21T10:47:23;8.20;;;5.00;;
77206;SDS011;66190;50.708;7.906;2023-08-21T10:50:00;10.07;;;5.10;;
77206;SDS011;66190;50.708;7.906;2023-08-21T10:52:28;7.93;;;4.20;;
77206;SDS011;66190;50.708;7.906;2023-08-21T10:54:56;8.38;;;4.60;;
77206;SDS011;66190;50.708;7.906;2023-08-21T10:57:23;9.57;;;4.97;;
77206;SDS011;66190;50.708;7.906;2023-08-21T10:59:59;8.82;;;5.40;;
77206;SDS011;66190;50.708;7.906;2023-08-21T11:02:29;8.30;;;5.00;;
77206;SDS011;66190;50.708;7.906;2023-08-21T11:04:55;7.13;;;4.30;;
77206;SDS011;66190;50.708;7.906;2023-08-21T11:07:21;7.40;;;3.70;;
77206;SDS011;66190;50.708;7.906;2023-08-21T11:09:47;8.45;;;4.30;;
77206;SDS011;66190;50.708;7.906;2023-08-21T11:12:17;8.23;;;4.40;;
77206;SDS011;66190;50.708;7.906;2023-08-21T11:14:45;8.38;;;4.20;;
77206;SDS011;66190;50.708;7.906;2023-08-21T11:17:10;7.70;;;4.07;;
77206;SDS011;66190;50.708;7.906;2023-08-21T11:19:36;7.53;;;3.90;;
77206;SDS011;66190;50.708;7.906;2023-08-21T11:22:02;9.90;;;4.78;;
77206;SDS011;66190;50.708;7.906;2023-08-21T11:24:50;8.02;;;3.90;;
77206;SDS011;66190;50.708;7.906;2023-08-21T11:27:18;6.27;;;2.63;;
77206;SDS011;66190;50.708;7.906;2023-08-21T11:29:45;5.88;;;2.88;;
77206;SDS011;66190;50.708;7.906;2023-08-21T11:32:15;9.38;;;3.85;;
77206;SDS011;66190;50.708;7.906;2023-08-21T11:34:43;27.27;;;16.90;;
77206;SDS011;66190;50.708;7.906;2023-08-21T11:37:13;12.32;;;7.20;;
77206;SDS011;66190;50.708;7.906;2023-08-21T11:39:50;10.87;;;7.60;;
77206;SDS011;66190;50.708;7.906;2023-08-21T11:42:17;11.75;;;6.18;;
77206;SDS011;66190;50.708;7.906;2023-08-21T11:44:48;10.20;;;6.00;;
77206;SDS011;66190;50.708;7.906;2023-08-21T11:47:16;11.75;;;5.70;;
77206;SDS011;66190;50.708;7.906;2023-08-21T11:49:44;9.38;;;5.90;;
77206;SDS011;66190;50.708;7.906;2023-08-21T11:52:12;8.77;;;5.60;;
77206;SDS011;66190;50.708;7.906;2023-08-21T11:54:39;8.68;;;4.93;;
77206;SDS011;66190;50.708;7.906;2023-08-21T11:57:11;7.35;;;4.45;;
77206;SDS011;66190;50.708;7.906;2023-08-21T11:59:38;6.65;;;3.30;;
77206;SDS011;66190;50.708;7.906;2023-08-21T12:04:52;6.80;;;3.60;;
77206;SDS011;66190;50.708;7.906;2023-08-21T12:07:19;7.25;;;4.00;;
77206;SDS011;66190;50.708;7.906;2023-08-21T12:09:48;6.93;;;4.15;;
77206;SDS011;66190;50.708;7.906;2023-08-21T12:12:14;6.57;;;3.50;;
77206;SDS011;66190;50.708;7.906;2023-08-21T12:14:40;5.77;;;3.30;;
77206;SDS011;66190;50.708;7.906;2023-08-21T12:17:05;6.43;;;3.13;;
77206;SDS011;66190;50.708;7.906;2023-08-21T12:19:31;6.78;;;3.45;;
77206;SDS011;66190;50.708;7.906;2023-08-21T12:21:56;26.87;;;23.93;;
77206;SDS011;66190;50.708;7.906;2023-08-21T12:24:23;7.50;;;5.03;;
77206;SDS011;66190;50.708;7.906;2023-08-21T12:26:49;7.27;;;4.00;;
77206;SDS011;66190;50.708;7.906;2023-08-21T12:29:14;8.77;;;4.30;;
77206;SDS011;66190;50.708;7.906;2023-08-21T12:31:40;8.13;;;4.57;;
77206;SDS011;66190;50.708;7.906;2023-08-21T12:34:06;7.43;;;3.77;;
77206;SDS011;66190;50.708;7.906;2023-08-21T12:36:33;6.33;;;3.27;;
77206;SDS011;66190;50.708;7.906;2023-08-21T12:38:59;7.10;;;3.22;;
77206;SDS011;66190;50.708;7.906;2023-08-21T12:41:25;6.33;;;3.20;;
77206;SDS011;66190;50.708;7.906;2023-08-21T12:43:50;6.70;;;3.63;;
77206;SDS011;66190;50.708;7.906;2023-08-21T12:46:16;6.73;;;3.77;;
77206;SDS011;66190;50.708;7.906;2023-08-21T12:48:41;6.83;;;3.80;;
77206;SDS011;66190;50.708;7.906;2023-08-21T12:51:07;8.07;;;4.10;;
77206;SDS011;66190;50.708;7.906;2023-08-21T12:53:32;7.57;;;3.73;;
77206;SDS011;66190;50.708;7.906;2023-08-21T12:55:57;8.60;;;4.37;;
77206;SDS011;66190;50.708;7.906;2023-08-21T12:58:23;8.10;;;4.63;;
77206;SDS011;66190;50.708;7.906;2023-08-21T13:00:48;7.83;;;4.70;;
77206;SDS011;66190;50.708;7.906;2023-08-21T13:03:14;7.60;;;4.20;;
77206;SDS011;66190;50.708;7.906;2023-08-21T13:05:39;8.10;;;3.73;;
77206;SDS011;66190;50.708;7.906;2023-08-21T13:08:04;6.93;;;3.60;;
77206;SDS011;66190;50.708;7.906;2023-08-21T13:10:30;6.80;;;4.13;;
77206;SDS011;66190;50.708;7.906;2023-08-21T13:12:56;8.00;;;4.17;;
77206;SDS011;66190;50.708;7.906;2023-08-21T13:15:21;7.97;;;4.13;;
77206;SDS011;66190;50.708;7.906;2023-08-21T13:17:46;8.00;;;4.37;;
77206;SDS011;66190;50.708;7.906;2023-08-21T13:20:12;7.70;;;4.28;;
77206;SDS011;66190;50.708;7.906;2023-08-21T13:22:44;8.00;;;4.67;;
77206;SDS011;66190;50.708;7.906;2023-08-21T13:25:10;8.25;;;4.55;;
77206;SDS011;66190;50.708;7.906;2023-08-21T13:27:36;7.23;;;4.20;;
77206;SDS011;66190;50.708;7.906;2023-08-21T13:30:01;6.90;;;4.67;;
77206;SDS011;66190;50.708;7.906;2023-08-21T13:32:27;8.60;;;5.30;;
77206;SDS011;66190;50.708;7.906;2023-08-21T13:34:53;7.72;;;5.53;;
77206;SDS011;66190;50.708;7.906;2023-08-21T13:37:19;8.77;;;4.73;;
77206;SDS011;66190;50.708;7.906;2023-08-21T13:39:44;7.87;;;4.90;;
77206;SDS011;66190;50.708;7.906;2023-08-21T13:42:10;9.05;;;5.28;;
77206;SDS011;66190;50.708;7.906;2023-08-21T13:44:35;7.60;;;5.37;;
77206;SDS011;66190;50.708;7.906;2023-08-21T13:47:01;7.90;;;5.10;;
77206;SDS011;66190;50.708;7.906;2023-08-21T13:49:26;8.17;;;5.67;;
77206;SDS011;66190;50.708;7.906;2023-08-21T13:51:51;8.63;;;5.03;;
77206;SDS011;66190;50.708;7.906;2023-08-21T13:54:17;7.80;;;5.00;;
77206;SDS011;66190;50.708;7.906;2023-08-21T13:56:42;8.77;;;5.13;;
77206;SDS011;66190;50.708;7.906;2023-08-21T13:59:07;8.45;;;5.70;;
77206;SDS011;66190;50.708;7.906;2023-08-21T14:01:33;8.43;;;5.60;;
77206;SDS011;66190;50.708;7.906;2023-08-21T14:03:58;8.70;;;5.70;;
77206;SDS011;66190;50.708;7.906;2023-08-21T14:06:23;7.93;;;5.23;;
77206;SDS011;66190;50.708;7.906;2023-08-21T14:08:49;8.37;;;5.73;;
77206;SDS011;66190;50.708;7.906;2023-08-21T14:11:14;9.23;;;5.87;;
77206;SDS011;66190;50.708;7.906;2023-08-21T14:13:40;8.77;;;6.00;;
77206;SDS011;66190;50.708;7.906;2023-08-21T14:16:05;9.73;;;6.30;;
77206;SDS011;66190;50.708;7.906;2023-08-21T14:18:31;10.83;;;6.30;;
77206;SDS011;66190;50.708;7.906;2023-08-21T14:20:56;9.17;;;6.00;;
77206;SDS011;66190;50.708;7.906;2023-08-21T14:23:21;8.47;;;5.83;;
77206;SDS011;66190;50.708;7.906;2023-08-21T14:25:47;10.80;;;6.20;;
77206;SDS011;66190;50.708;7.906;2023-08-21T14:28:12;8.97;;;6.30;;
77206;SDS011;66190;50.708;7.906;2023-08-21T14:30:38;9.80;;;6.00;;
77206;SDS011;66190;50.708;7.906;2023-08-21T14:33:03;9.67;;;6.27;;
77206;SDS011;66190;50.708;7.906;2023-08-21T14:35:29;8.30;;;6.43;;
77206;SDS011;66190;50.708;7.906;2023-08-21T14:37:54;8.80;;;6.57;;
77206;SDS011;66190;50.708;7.906;2023-08-21T14:40:19;9.57;;;6.73;;
77206;SDS011;66190;50.708;7.906;2023-08-21T14:42:45;9.27;;;6.85;;
77206;SDS011;66190;50.708;7.906;2023-08-21T14:45:10;8.77;;;6.53;;
77206;SDS011;66190;50.708;7.906;2023-08-21T14:47:36;9.60;;;6.70;;
77206;SDS011;66190;50.708;7.906;2023-08-21T14:50:02;10.10;;;6.70;;
77206;SDS011;66190;50.708;7.906;2023-08-21T14:52:28;9.30;;;7.00;;
77206;SDS011;66190;50.708;7.906;2023-08-21T14:54:53;8.87;;;7.00;;